Layton, Pennsylvania
Current Conditions -  °F | °C
As of 8:53 PM on Friday 19 Dec 2014 (Local Time) from KAGC Reporting Station
Overcast Overcast  
Wind Chill: 24°   Ceiling: 2600
Heat Index: 30°   Visibility: 10mi
Dew Point: 18°   Wind: 6mph
Humidity: 61%   Direction: 310°NW
Pressure: 30.25"   Gusts: NA
Location:  40.0867°N, 79.7522°W
Report Text: KAGC 200153Z AUTO 31005KT 10SM OVC026 M01/M08 A3025 RMK AO2 SLP264 T10111078 TSNO
Loading
Personal Weather Stations






























Interactive Weather Map New forecast layout! Learn more

10-Day Weather Forecast

Advertisements
Track Severe Weather on mobile